sensor_id;sensor_type;location;lat;lon;timestamp;pressure;altitude;pressure_sealevel;temperature;humidity
61908;BME280;47864;52.526;19.672;2022-11-15T00:00:39;101284.41;;;5.48;100.00
61908;BME280;47864;52.526;19.672;2022-11-15T00:02:41;101292.19;;;5.50;100.00
61908;BME280;47864;52.526;19.672;2022-11-15T00:04:43;101284.53;;;5.59;100.00
61908;BME280;47864;52.526;19.672;2022-11-15T00:06:45;101279.28;;;5.59;100.00
61908;BME280;47864;52.526;19.672;2022-11-15T00:08:47;101274.44;;;5.66;100.00
61908;BME280;47864;52.526;19.672;2022-11-15T00:10:56;101268.00;;;5.57;100.00
61908;BME280;47864;52.526;19.672;2022-11-15T00:12:58;101263.47;;;5.59;100.00
61908;BME280;47864;52.526;19.672;2022-11-15T00:14:59;101266.44;;;5.67;100.00
61908;BME280;47864;52.526;19.672;2022-11-15T00:17:01;101269.47;;;5.61;100.00
61908;BME280;47864;52.526;19.672;2022-11-15T00:19:03;101265.47;;;5.56;100.00
61908;BME280;47864;52.526;19.672;2022-11-15T00:21:07;101258.50;;;5.42;100.00
61908;BME280;47864;52.526;19.672;2022-11-15T00:23:10;101259.09;;;5.33;100.00
61908;BME280;47864;52.526;19.672;2022-11-15T00:25:12;101261.31;;;5.39;100.00
61908;BME280;47864;52.526;19.672;2022-11-15T00:27:14;101255.13;;;5.40;100.00
61908;BME280;47864;52.526;19.672;2022-11-15T00:29:16;101252.34;;;5.29;100.00
61908;BME280;47864;52.526;19.672;2022-11-15T00:31:17;101258.34;;;5.31;100.00
61908;BME280;47864;52.526;19.672;2022-11-15T00:33:19;101248.78;;;5.30;100.00
61908;BME280;47864;52.526;19.672;2022-11-15T00:35:21;101241.53;;;5.33;100.00
61908;BME280;47864;52.526;19.672;2022-11-15T00:37:23;101247.09;;;5.29;100.00
61908;BME280;47864;52.526;19.672;2022-11-15T00:39:25;101241.63;;;5.32;100.00
61908;BME280;47864;52.526;19.672;2022-11-15T00:41:27;101236.81;;;5.39;100.00
61908;BME280;47864;52.526;19.672;2022-11-15T00:43:28;101224.69;;;5.36;100.00
61908;BME280;47864;52.526;19.672;2022-11-15T00:45:31;101244.41;;;5.56;100.00
61908;BME280;47864;52.526;19.672;2022-11-15T00:47:32;101240.31;;;5.64;100.00
61908;BME280;47864;52.526;19.672;2022-11-15T00:49:34;101237.69;;;5.64;100.00
61908;BME280;47864;52.526;19.672;2022-11-15T00:51:36;101233.88;;;5.68;100.00
61908;BME280;47864;52.526;19.672;2022-11-15T00:53:38;101237.03;;;5.61;100.00
61908;BME280;47864;52.526;19.672;2022-11-15T00:55:39;101242.53;;;5.58;100.00
61908;BME280;47864;52.526;19.672;2022-11-15T00:57:41;101214.09;;;5.50;100.00
61908;BME280;47864;52.526;19.672;2022-11-15T00:59:43;101226.09;;;5.54;100.00
61908;BME280;47864;52.526;19.672;2022-11-15T01:01:45;101228.44;;;5.59;100.00
61908;BME280;47864;52.526;19.672;2022-11-15T01:03:46;101228.84;;;5.65;100.00
61908;BME280;47864;52.526;19.672;2022-11-15T01:05:48;101223.25;;;5.70;100.00
61908;BME280;47864;52.526;19.672;2022-11-15T01:07:54;101220.09;;;5.65;100.00
61908;BME280;47864;52.526;19.672;2022-11-15T01:09:56;101220.44;;;5.73;100.00
61908;BME280;47864;52.526;19.672;2022-11-15T01:11:58;101223.25;;;5.70;100.00
61908;BME280;47864;52.526;19.672;2022-11-15T01:13:59;101220.97;;;5.65;100.00
61908;BME280;47864;52.526;19.672;2022-11-15T01:16:13;101217.47;;;5.65;100.00
61908;BME280;47864;52.526;19.672;2022-11-15T01:18:16;101211.03;;;5.69;100.00
61908;BME280;47864;52.526;19.672;2022-11-15T01:20:18;101213.69;;;5.82;100.00
61908;BME280;47864;52.526;19.672;2022-11-15T01:22:20;101221.09;;;5.89;100.00
61908;BME280;47864;52.526;19.672;2022-11-15T01:24:22;101208.88;;;5.76;100.00
61908;BME280;47864;52.526;19.672;2022-11-15T01:26:24;101208.00;;;5.75;100.00
61908;BME280;47864;52.526;19.672;2022-11-15T01:28:31;101206.09;;;5.64;100.00
61908;BME280;47864;52.526;19.672;2022-11-15T01:30:33;101207.56;;;5.56;100.00
61908;BME280;47864;52.526;19.672;2022-11-15T01:32:35;101210.53;;;5.51;100.00
61908;BME280;47864;52.526;19.672;2022-11-15T01:34:37;101205.69;;;5.58;100.00
61908;BME280;47864;52.526;19.672;2022-11-15T01:36:39;101196.31;;;5.41;100.00
61908;BME280;47864;52.526;19.672;2022-11-15T01:38:41;101193.88;;;5.38;100.00
61908;BME280;47864;52.526;19.672;2022-11-15T01:40:42;101187.84;;;5.36;100.00
61908;BME280;47864;52.526;19.672;2022-11-15T01:42:44;101185.97;;;5.25;100.00
61908;BME280;47864;52.526;19.672;2022-11-15T01:44:48;101188.28;;;5.30;100.00
61908;BME280;47864;52.526;19.672;2022-11-15T01:46:50;101186.06;;;5.24;100.00
61908;BME280;47864;52.526;19.672;2022-11-15T01:48:53;101182.50;;;5.38;100.00
61908;BME280;47864;52.526;19.672;2022-11-15T01:50:58;101181.56;;;5.26;100.00
61908;BME280;47864;52.526;19.672;2022-11-15T01:53:01;101177.13;;;5.26;100.00
61908;BME280;47864;52.526;19.672;2022-11-15T01:55:16;101162.28;;;5.25;100.00
61908;BME280;47864;52.526;19.672;2022-11-15T01:57:19;101162.81;;;5.30;100.00
61908;BME280;47864;52.526;19.672;2022-11-15T01:59:21;101164.38;;;5.20;100.00
61908;BME280;47864;52.526;19.672;2022-11-15T02:01:25;101163.47;;;5.34;100.00
61908;BME280;47864;52.526;19.672;2022-11-15T02:03:35;101158.94;;;5.49;100.00
61908;BME280;47864;52.526;19.672;2022-11-15T02:05:39;101158.72;;;5.26;100.00
61908;BME280;47864;52.526;19.672;2022-11-15T02:07:42;101161.03;;;5.31;100.00
61908;BME280;47864;52.526;19.672;2022-11-15T02:09:45;101160.09;;;5.45;100.00
61908;BME280;47864;52.526;19.672;2022-11-15T02:11:48;101159.97;;;5.46;100.00
61908;BME280;47864;52.526;19.672;2022-11-15T02:13:51;101156.94;;;5.40;100.00
61908;BME280;47864;52.526;19.672;2022-11-15T02:18:26;101157.69;;;5.42;100.00
61908;BME280;47864;52.526;19.672;2022-11-15T02:20:52;101146.28;;;5.28;100.00
61908;BME280;47864;52.526;19.672;2022-11-15T02:30:13;101129.97;;;5.36;100.00
61908;BME280;47864;52.526;19.672;2022-11-15T02:32:24;101136.22;;;5.35;100.00
61908;BME280;47864;52.526;19.672;2022-11-15T02:37:43;101118.41;;;5.39;100.00
61908;BME280;47864;52.526;19.672;2022-11-15T02:40:23;101118.94;;;5.44;100.00
61908;BME280;47864;52.526;19.672;2022-11-15T02:42:35;101116.81;;;5.36;100.00
61908;BME280;47864;52.526;19.672;2022-11-15T02:44:42;101110.09;;;5.32;100.00
61908;BME280;47864;52.526;19.672;2022-11-15T02:46:51;101109.16;;;5.20;100.00
61908;BME280;47864;52.526;19.672;2022-11-15T02:48:55;101107.28;;;5.35;100.00
61908;BME280;47864;52.526;19.672;2022-11-15T02:50:58;101101.16;;;5.47;100.00
61908;BME280;47864;52.526;19.672;2022-11-15T02:53:00;101098.88;;;5.43;100.00
61908;BME280;47864;52.526;19.672;2022-11-15T02:55:02;101092.63;;;5.31;100.00
61908;BME280;47864;52.526;19.672;2022-11-15T02:57:10;101098.63;;;5.46;100.00
61908;BME280;47864;52.526;19.672;2022-11-15T03:08:32;101092.63;;;5.31;100.00
61908;BME280;47864;52.526;19.672;2022-11-15T03:13:21;101100.13;;;5.24;100.00
61908;BME280;47864;52.526;19.672;2022-11-15T03:15:39;101091.91;;;5.29;100.00
61908;BME280;47864;52.526;19.672;2022-11-15T03:18:05;101097.25;;;5.27;100.00
61908;BME280;47864;52.526;19.672;2022-11-15T03:20:12;101095.06;;;5.34;100.00
61908;BME280;47864;52.526;19.672;2022-11-15T03:22:18;101082.53;;;5.25;100.00
61908;BME280;47864;52.526;19.672;2022-11-15T03:24:23;101086.75;;;5.40;100.00
61908;BME280;47864;52.526;19.672;2022-11-15T03:26:28;101089.28;;;5.42;100.00
61908;BME280;47864;52.526;19.672;2022-11-15T03:28:36;101083.38;;;5.38;100.00
61908;BME280;47864;52.526;19.672;2022-11-15T03:30:39;101074.53;;;5.39;100.00
61908;BME280;47864;52.526;19.672;2022-11-15T03:32:56;101087.19;;;5.34;100.00
61908;BME280;47864;52.526;19.672;2022-11-15T03:37:10;101082.75;;;5.22;100.00
61908;BME280;47864;52.526;19.672;2022-11-15T03:39:14;101082.22;;;5.17;100.00
61908;BME280;47864;52.526;19.672;2022-11-15T03:41:37;101068.56;;;5.24;100.00
61908;BME280;47864;52.526;19.672;2022-11-15T03:43:54;101070.97;;;5.15;100.00
61908;BME280;47864;52.526;19.672;2022-11-15T03:46:01;101063.72;;;5.18;100.00
61908;BME280;47864;52.526;19.672;2022-11-15T03:48:13;101058.78;;;5.26;100.00
61908;BME280;47864;52.526;19.672;2022-11-15T03:50:21;101056.75;;;5.30;100.00
61908;BME280;47864;52.526;19.672;2022-11-15T03:52:23;101064.44;;;5.33;100.00
61908;BME280;47864;52.526;19.672;2022-11-15T03:54:25;101040.16;;;5.17;100.00
61908;BME280;47864;52.526;19.672;2022-11-15T03:56:27;101055.41;;;5.24;100.00
61908;BME280;47864;52.526;19.672;2022-11-15T03:58:29;101057.06;;;5.13;100.00
61908;BME280;47864;52.526;19.672;2022-11-15T04:00:31;101045.94;;;5.22;100.00
61908;BME280;47864;52.526;19.672;2022-11-15T04:02:33;101045.81;;;5.36;100.00
61908;BME280;47864;52.526;19.672;2022-11-15T04:04:35;101041.28;;;5.38;100.00
61908;BME280;47864;52.526;19.672;2022-11-15T04:06:36;101041.28;;;5.38;100.00
61908;BME280;47864;52.526;19.672;2022-11-15T04:08:38;101041.38;;;5.36;100.00
61908;BME280;47864;52.526;19.672;2022-11-15T04:10:40;101044.22;;;5.46;100.00
61908;BME280;47864;52.526;19.672;2022-11-15T04:12:43;101045.41;;;5.42;100.00
61908;BME280;47864;52.526;19.672;2022-11-15T04:14:46;101044.75;;;5.39;100.00
61908;BME280;47864;52.526;19.672;2022-11-15T04:16:47;101049.31;;;5.24;100.00
61908;BME280;47864;52.526;19.672;2022-11-15T04:18:49;101048.56;;;5.22;100.00
61908;BME280;47864;52.526;19.672;2022-11-15T04:20:51;101034.59;;;5.09;100.00
61908;BME280;47864;52.526;19.672;2022-11-15T04:22:54;101034.97;;;5.28;100.00
61908;BME280;47864;52.526;19.672;2022-11-15T04:24:56;101040.53;;;5.36;100.00
61908;BME280;47864;52.526;19.672;2022-11-15T04:26:58;101036.88;;;5.39;100.00
61908;BME280;47864;52.526;19.672;2022-11-15T04:29:00;101037.50;;;5.29;100.00
61908;BME280;47864;52.526;19.672;2022-11-15T04:31:02;101039.00;;;5.33;100.00
61908;BME280;47864;52.526;19.672;2022-11-15T04:33:04;101031.72;;;5.37;100.00
61908;BME280;47864;52.526;19.672;2022-11-15T04:35:06;101035.38;;;5.47;100.00
61908;BME280;47864;52.526;19.672;2022-11-15T04:37:07;101033.19;;;5.41;100.00
61908;BME280;47864;52.526;19.672;2022-11-15T04:39:09;101027.50;;;5.47;100.00
61908;BME280;47864;52.526;19.672;2022-11-15T04:41:11;101026.34;;;5.51;100.00
61908;BME280;47864;52.526;19.672;2022-11-15T04:43:13;101013.06;;;5.53;100.00
61908;BME280;47864;52.526;19.672;2022-11-15T04:45:14;101028.34;;;5.48;100.00
61908;BME280;47864;52.526;19.672;2022-11-15T04:47:16;101020.53;;;5.46;100.00
61908;BME280;47864;52.526;19.672;2022-11-15T04:49:18;101014.97;;;5.51;100.00
61908;BME280;47864;52.526;19.672;2022-11-15T04:51:20;101018.44;;;5.51;100.00
61908;BME280;47864;52.526;19.672;2022-11-15T04:53:22;101015.59;;;5.54;100.00
61908;BME280;47864;52.526;19.672;2022-11-15T04:55:23;101009.47;;;5.54;100.00
61908;BME280;47864;52.526;19.672;2022-11-15T04:57:25;101010.84;;;5.59;100.00
61908;BME280;47864;52.526;19.672;2022-11-15T04:59:27;101015.06;;;5.49;100.00
61908;BME280;47864;52.526;19.672;2022-11-15T05:01:29;101000.34;;;5.47;100.00
61908;BME280;47864;52.526;19.672;2022-11-15T05:03:31;101002.44;;;5.54;100.00
61908;BME280;47864;52.526;19.672;2022-11-15T05:05:33;101006.63;;;5.57;100.00
61908;BME280;47864;52.526;19.672;2022-11-15T05:07:35;101007.09;;;5.51;100.00
61908;BME280;47864;52.526;19.672;2022-11-15T05:09:37;101001.28;;;5.46;100.00
61908;BME280;47864;52.526;19.672;2022-11-15T05:11:39;101002.56;;;5.27;100.00
61908;BME280;47864;52.526;19.672;2022-11-15T05:13:41;100994.28;;;5.21;100.00
61908;BME280;47864;52.526;19.672;2022-11-15T05:15:43;100991.44;;;5.24;100.00
61908;BME280;47864;52.526;19.672;2022-11-15T05:17:44;100992.91;;;5.15;100.00
61908;BME280;47864;52.526;19.672;2022-11-15T05:19:46;100991.66;;;5.08;100.00
61908;BME280;47864;52.526;19.672;2022-11-15T05:21:48;100993.56;;;5.19;100.00
61908;BME280;47864;52.526;19.672;2022-11-15T05:23:50;100993.19;;;5.36;100.00
61908;BME280;47864;52.526;19.672;2022-11-15T05:25:51;100987.59;;;5.53;100.00
61908;BME280;47864;52.526;19.672;2022-11-15T05:27:53;100984.75;;;5.56;100.00
61908;BME280;47864;52.526;19.672;2022-11-15T05:29:55;100985.25;;;5.61;100.00
61908;BME280;47864;52.526;19.672;2022-11-15T05:31:57;100978.34;;;5.48;100.00
61908;BME280;47864;52.526;19.672;2022-11-15T05:34:00;100984.84;;;5.55;100.00
61908;BME280;47864;52.526;19.672;2022-11-15T05:36:12;100974.44;;;5.53;100.00
61908;BME280;47864;52.526;19.672;2022-11-15T05:38:15;100982.97;;;5.44;100.00
61908;BME280;47864;52.526;19.672;2022-11-15T05:40:17;100977.59;;;5.46;100.00
61908;BME280;47864;52.526;19.672;2022-11-15T05:42:19;100975.16;;;5.55;100.00
61908;BME280;47864;52.526;19.672;2022-11-15T05:44:22;100969.06;;;5.55;100.00
61908;BME280;47864;52.526;19.672;2022-11-15T05:46:24;100968.47;;;5.51;100.00
61908;BME280;47864;52.526;19.672;2022-11-15T05:48:26;100974.56;;;5.52;100.00
61908;BME280;47864;52.526;19.672;2022-11-15T05:50:28;100975.91;;;5.57;100.00
61908;BME280;47864;52.526;19.672;2022-11-15T05:52:31;100974.25;;;5.44;100.00
61908;BME280;47864;52.526;19.672;2022-11-15T05:54:36;100972.34;;;5.46;100.00
61908;BME280;47864;52.526;19.672;2022-11-15T05:56:39;100972.25;;;5.47;100.00
61908;BME280;47864;52.526;19.672;2022-11-15T05:58:41;100973.34;;;5.32;100.00
61908;BME280;47864;52.526;19.672;2022-11-15T06:00:43;100970.38;;;5.36;100.00
61908;BME280;47864;52.526;19.672;2022-11-15T06:02:45;100965.53;;;5.30;100.00
61908;BME280;47864;52.526;19.672;2022-11-15T06:04:47;100972.50;;;5.31;100.00
61908;BME280;47864;52.526;19.672;2022-11-15T06:06:49;100966.59;;;5.28;100.00
61908;BME280;47864;52.526;19.672;2022-11-15T06:08:51;100972.25;;;5.47;100.00
61908;BME280;47864;52.526;19.672;2022-11-15T06:10:53;100969.41;;;5.50;100.00
61908;BME280;47864;52.526;19.672;2022-11-15T06:13:03;100976.47;;;5.37;100.00
61908;BME280;47864;52.526;19.672;2022-11-15T06:15:09;100963.34;;;5.24;100.00
61908;BME280;47864;52.526;19.672;2022-11-15T06:17:11;100976.38;;;5.39;100.00
61908;BME280;47864;52.526;19.672;2022-11-15T06:19:13;100974.56;;;5.52;100.00
61908;BME280;47864;52.526;19.672;2022-11-15T06:21:14;100986.59;;;5.43;100.00
61908;BME280;47864;52.526;19.672;2022-11-15T06:23:16;100984.06;;;5.29;100.00
61908;BME280;47864;52.526;19.672;2022-11-15T06:25:18;100982.38;;;5.28;100.00
61908;BME280;47864;52.526;19.672;2022-11-15T06:27:20;100987.53;;;5.29;100.00
61908;BME280;47864;52.526;19.672;2022-11-15T06:29:22;100991.00;;;5.30;100.00
61908;BME280;47864;52.526;19.672;2022-11-15T06:31:24;100985.75;;;5.43;100.00
61908;BME280;47864;52.526;19.672;2022-11-15T06:33:25;100985.88;;;5.65;100.00
61908;BME280;47864;52.526;19.672;2022-11-15T06:35:28;100991.91;;;5.54;100.00
61908;BME280;47864;52.526;19.672;2022-11-15T06:37:30;100994.78;;;5.51;100.00
61908;BME280;47864;52.526;19.672;2022-11-15T06:39:32;100989.28;;;5.54;100.00
61908;BME280;47864;52.526;19.672;2022-11-15T06:41:34;100986.53;;;5.56;100.00
61908;BME280;47864;52.526;19.672;2022-11-15T06:43:37;100995.16;;;5.58;100.00
61908;BME280;47864;52.526;19.672;2022-11-15T06:45:38;100988.63;;;5.63;100.00
61908;BME280;47864;52.526;19.672;2022-11-15T06:47:46;100983.25;;;5.65;100.00
61908;BME280;47864;52.526;19.672;2022-11-15T06:49:48;101000.06;;;5.75;100.00
61908;BME280;47864;52.526;19.672;2022-11-15T06:51:50;100995.41;;;5.91;100.00
61908;BME280;47864;52.526;19.672;2022-11-15T06:53:52;100998.78;;;5.81;100.00
61908;BME280;47864;52.526;19.672;2022-11-15T06:55:58;100998.28;;;5.76;100.00
61908;BME280;47864;52.526;19.672;2022-11-15T06:58:00;101011.31;;;5.90;100.00
61908;BME280;47864;52.526;19.672;2022-11-15T07:00:05;101010.38;;;5.91;100.00
61908;BME280;47864;52.526;19.672;2022-11-15T07:02:12;101005.03;;;5.67;100.00
61908;BME280;47864;52.526;19.672;2022-11-15T07:04:14;101000.38;;;5.83;100.00
61908;BME280;47864;52.526;19.672;2022-11-15T07:06:16;101002.56;;;5.89;100.00
61908;BME280;47864;52.526;19.672;2022-11-15T07:08:18;101004.44;;;6.00;100.00
61908;BME280;47864;52.526;19.672;2022-11-15T07:10:20;100996.69;;;6.09;100.00
61908;BME280;47864;52.526;19.672;2022-11-15T07:12:22;101001.25;;;6.07;100.00
61908;BME280;47864;52.526;19.672;2022-11-15T07:14:24;101004.44;;;6.00;100.00
61908;BME280;47864;52.526;19.672;2022-11-15T07:16:26;101000.72;;;6.02;100.00
61908;BME280;47864;52.526;19.672;2022-11-15T07:18:28;101002.94;;;6.08;100.00
61908;BME280;47864;52.526;19.672;2022-11-15T07:20:29;100996.09;;;6.06;100.00
61908;BME280;47864;52.526;19.672;2022-11-15T07:22:31;100994.97;;;5.97;100.00
61908;BME280;47864;52.526;19.672;2022-11-15T07:24:33;100999.59;;;5.94;100.00
61908;BME280;47864;52.526;19.672;2022-11-15T07:26:35;100996.75;;;5.97;100.00
61908;BME280;47864;52.526;19.672;2022-11-15T07:28:37;100997.66;;;6.08;100.00
61908;BME280;47864;52.526;19.672;2022-11-15T07:30:38;101005.16;;;6.02;100.00
61908;BME280;47864;52.526;19.672;2022-11-15T07:32:45;101002.78;;;6.10;100.00
61908;BME280;47864;52.526;19.672;2022-11-15T07:34:47;100996.53;;;6.24;100.00
61908;BME280;47864;52.526;19.672;2022-11-15T07:36:49;100997.03;;;6.29;100.00
61908;BME280;47864;52.526;19.672;2022-11-15T07:38:51;100996.97;;;6.41;100.00
61908;BME280;47864;52.526;19.672;2022-11-15T07:40:57;100973.38;;;6.40;100.00
61908;BME280;47864;52.526;19.672;2022-11-15T07:43:05;100985.16;;;6.58;100.00
61908;BME280;47864;52.526;19.672;2022-11-15T07:45:08;100981.06;;;6.54;100.00
61908;BME280;47864;52.526;19.672;2022-11-15T07:47:09;100978.84;;;6.37;100.00
61908;BME280;47864;52.526;19.672;2022-11-15T07:49:11;100979.63;;;6.26;100.00
61908;BME280;47864;52.526;19.672;2022-11-15T07:51:14;100971.06;;;6.35;100.00
61908;BME280;47864;52.526;19.672;2022-11-15T07:53:16;100977.00;;;6.50;100.00
61908;BME280;47864;52.526;19.672;2022-11-15T07:55:18;100976.66;;;6.66;100.00
61908;BME280;47864;52.526;19.672;2022-11-15T07:57:20;100980.47;;;6.51;100.00
61908;BME280;47864;52.526;19.672;2022-11-15T07:59:22;100982.94;;;6.41;100.00
61908;BME280;47864;52.526;19.672;2022-11-15T08:01:24;100985.38;;;6.20;100.00
61908;BME280;47864;52.526;19.672;2022-11-15T08:03:26;100982.28;;;6.26;100.00
61908;BME280;47864;52.526;19.672;2022-11-15T08:05:27;100976.88;;;6.17;100.00
61908;BME280;47864;52.526;19.672;2022-11-15T08:07:30;100974.88;;;6.31;100.00
61908;BME280;47864;52.526;19.672;2022-11-15T08:09:32;100973.19;;;6.30;100.00
61908;BME280;47864;52.526;19.672;2022-11-15T08:11:34;100969.25;;;6.25;100.00
61908;BME280;47864;52.526;19.672;2022-11-15T08:13:36;100964.34;;;6.31;100.00
61908;BME280;47864;52.526;19.672;2022-11-15T08:15:38;100966.88;;;6.44;100.00
61908;BME280;47864;52.526;19.672;2022-11-15T08:17:40;100966.03;;;6.32;100.00
61908;BME280;47864;52.526;19.672;2022-11-15T08:19:41;100954.44;;;6.46;100.00
61908;BME280;47864;52.526;19.672;2022-11-15T08:21:43;100959.53;;;6.25;100.00
61908;BME280;47864;52.526;19.672;2022-11-15T08:23:45;100964.25;;;6.44;100.00
61908;BME280;47864;52.526;19.672;2022-11-15T08:25:47;100947.38;;;6.46;100.00
61908;BME280;47864;52.526;19.672;2022-11-15T08:28:01;100951.84;;;6.57;100.00
61908;BME280;47864;52.526;19.672;2022-11-15T08:30:04;100952.44;;;6.15;100.00
61908;BME280;47864;52.526;19.672;2022-11-15T08:32:06;100958.81;;;6.23;100.00
61908;BME280;47864;52.526;19.672;2022-11-15T08:34:07;100958.13;;;6.32;100.00
61908;BME280;47864;52.526;19.672;2022-11-15T08:36:13;100954.00;;;6.17;100.00
61908;BME280;47864;52.526;19.672;2022-11-15T08:38:16;100948.84;;;6.16;100.00
61908;BME280;47864;52.526;19.672;2022-11-15T08:40:18;100949.13;;;6.35;100.00
61908;BME280;47864;52.526;19.672;2022-11-15T08:42:19;100951.75;;;6.24;100.00
61908;BME280;47864;52.526;19.672;2022-11-15T08:44:21;100946.59;;;6.22;100.00
61908;BME280;47864;52.526;19.672;2022-11-15T08:46:24;100931.94;;;6.18;100.00
61908;BME280;47864;52.526;19.672;2022-11-15T08:48:26;100943.69;;;6.14;100.00
61908;BME280;47864;52.526;19.672;2022-11-15T08:50:28;100944.84;;;6.34;100.00
61908;BME280;47864;52.526;19.672;2022-11-15T08:52:30;100948.28;;;6.23;100.00
61908;BME280;47864;52.526;19.672;2022-11-15T08:54:31;100948.50;;;5.96;100.00
61908;BME280;47864;52.526;19.672;2022-11-15T08:56:33;100944.31;;;5.94;100.00
61908;BME280;47864;52.526;19.672;2022-11-15T08:58:35;100939.44;;;6.00;100.00
61908;BME280;47864;52.526;19.672;2022-11-15T09:00:37;100946.81;;;6.19;100.00
61908;BME280;47864;52.526;19.672;2022-11-15T09:02:39;100945.06;;;6.31;100.00
61908;BME280;47864;52.526;19.672;2022-11-15T09:04:42;100938.00;;;6.31;100.00
61908;BME280;47864;52.526;19.672;2022-11-15T09:06:44;100938.47;;;6.36;100.00
61908;BME280;47864;52.526;19.672;2022-11-15T09:08:46;100936.09;;;6.44;100.00
61908;BME280;47864;52.526;19.672;2022-11-15T09:10:49;100939.84;;;6.18;100.00
61908;BME280;47864;52.526;19.672;2022-11-15T09:12:51;100939.56;;;5.99;100.00
61908;BME280;47864;52.526;19.672;2022-11-15T09:14:53;100941.50;;;6.08;100.00
61908;BME280;47864;52.526;19.672;2022-11-15T09:16:55;100940.28;;;6.36;100.00
61908;BME280;47864;52.526;19.672;2022-11-15T09:18:56;100940.38;;;6.23;100.00
61908;BME280;47864;52.526;19.672;2022-11-15T09:20:59;100935.44;;;6.19;100.00
61908;BME280;47864;52.526;19.672;2022-11-15T09:23:02;100940.09;;;6.15;100.00
61908;BME280;47864;52.526;19.672;2022-11-15T09:25:04;100931.53;;;6.24;100.00
61908;BME280;47864;52.526;19.672;2022-11-15T09:27:11;100927.66;;;6.17;100.00
61908;BME280;47864;52.526;19.672;2022-11-15T09:29:13;100927.19;;;6.23;100.00
61908;BME280;47864;52.526;19.672;2022-11-15T09:31:15;100900.91;;;6.45;100.00
61908;BME280;47864;52.526;19.672;2022-11-15T09:33:22;100920.59;;;6.64;100.00
61908;BME280;47864;52.526;19.672;2022-11-15T09:35:24;100919.03;;;6.72;100.00
61908;BME280;47864;52.526;19.672;2022-11-15T09:37:26;100919.88;;;6.73;100.00
61908;BME280;47864;52.526;19.672;2022-11-15T09:39:28;100927.16;;;6.69;100.00
61908;BME280;47864;52.526;19.672;2022-11-15T09:41:56;100916.53;;;6.93;100.00
61908;BME280;47864;52.526;19.672;2022-11-15T09:44:36;100917.00;;;6.87;100.00
61908;BME280;47864;52.526;19.672;2022-11-15T09:49:09;100908.25;;;6.64;100.00
61908;BME280;47864;52.526;19.672;2022-11-15T09:51:25;100900.19;;;6.55;100.00
61908;BME280;47864;52.526;19.672;2022-11-15T09:56:21;100911.94;;;6.51;100.00
61908;BME280;47864;52.526;19.672;2022-11-15T09:58:35;100914.06;;;6.45;100.00
61908;BME280;47864;52.526;19.672;2022-11-15T10:00:41;100904.53;;;6.56;100.00
61908;BME280;47864;52.526;19.672;2022-11-15T10:03:16;100898.41;;;6.77;100.00
61908;BME280;47864;52.526;19.672;2022-11-15T10:05:22;100881.19;;;6.73;100.00
61908;BME280;47864;52.526;19.672;2022-11-15T10:09:55;100898.91;;;6.94;100.00
61908;BME280;47864;52.526;19.672;2022-11-15T10:12:00;100895.03;;;6.53;100.00
61908;BME280;47864;52.526;19.672;2022-11-15T10:14:10;100890.94;;;6.38;100.00
61908;BME280;47864;52.526;19.672;2022-11-15T10:18:32;100899.75;;;6.72;100.00
61908;BME280;47864;52.526;19.672;2022-11-15T10:21:00;100879.75;;;6.58;100.00
61908;BME280;47864;52.526;19.672;2022-11-15T10:23:11;100884.22;;;6.23;100.00
61908;BME280;47864;52.526;19.672;2022-11-15T10:25:22;100881.72;;;6.32;100.00
61908;BME280;47864;52.526;19.672;2022-11-15T10:27:25;100889.13;;;6.27;100.00
61908;BME280;47864;52.526;19.672;2022-11-15T10:29:26;100887.38;;;6.39;100.00
61908;BME280;47864;52.526;19.672;2022-11-15T10:31:28;100885.47;;;6.63;100.00
61908;BME280;47864;52.526;19.672;2022-11-15T10:33:38;100880.81;;;6.67;100.00
61908;BME280;47864;52.526;19.672;2022-11-15T10:35:40;100887.53;;;6.71;100.00
61908;BME280;47864;52.526;19.672;2022-11-15T10:37:42;100877.84;;;6.82;100.00
61908;BME280;47864;52.526;19.672;2022-11-15T10:39:44;100883.44;;;7.00;100.00
61908;BME280;47864;52.526;19.672;2022-11-15T10:42:18;100882.84;;;6.97;100.00
61908;BME280;47864;52.526;19.672;2022-11-15T10:44:30;100874.34;;;6.93;100.00
61908;BME280;47864;52.526;19.672;2022-11-15T10:46:34;100874.72;;;7.00;100.00
61908;BME280;47864;52.526;19.672;2022-11-15T10:48:52;100872.16;;;7.09;100.00
61908;BME280;47864;52.526;19.672;2022-11-15T10:50:54;100875.91;;;7.07;100.00
61908;BME280;47864;52.526;19.672;2022-11-15T10:52:58;100863.66;;;6.95;100.00
61908;BME280;47864;52.526;19.672;2022-11-15T10:57:20;100862.13;;;6.59;100.00
61908;BME280;47864;52.526;19.672;2022-11-15T10:59:27;100864.88;;;6.57;100.00
61908;BME280;47864;52.526;19.672;2022-11-15T11:01:29;100858.66;;;6.58;100.00
61908;BME280;47864;52.526;19.672;2022-11-15T11:03:36;100864.63;;;6.71;100.00
61908;BME280;47864;52.526;19.672;2022-11-15T11:05:40;100864.50;;;6.95;100.00
61908;BME280;47864;52.526;19.672;2022-11-15T11:07:59;100850.84;;;6.79;100.00
61908;BME280;47864;52.526;19.672;2022-11-15T11:10:20;100860.19;;;6.61;100.00
61908;BME280;47864;52.526;19.672;2022-11-15T11:12:42;100852.06;;;6.64;100.00
61908;BME280;47864;52.526;19.672;2022-11-15T11:14:44;100855.75;;;6.61;100.00
61908;BME280;47864;52.526;19.672;2022-11-15T11:21:51;100848.44;;;6.76;100.00
61908;BME280;47864;52.526;19.672;2022-11-15T11:24:08;100846.19;;;6.71;100.00
61908;BME280;47864;52.526;19.672;2022-11-15T11:28:48;100835.25;;;6.98;100.00